sensor_id;sensor_type;location;lat;lon;timestamp;temperature;humidity
16491;DHT22;8356;51.214;3.270;2024-03-02T00:02:25;231.10;2252.80
16491;DHT22;8356;51.214;3.270;2024-03-02T00:04:51;231.10;2252.80
16491;DHT22;8356;51.214;3.270;2024-03-02T00:07:17;231.10;2252.80
16491;DHT22;8356;51.214;3.270;2024-03-02T00:09:43;231.20;2252.80
16491;DHT22;8356;51.214;3.270;2024-03-02T00:12:11;231.10;2252.80
16491;DHT22;8356;51.214;3.270;2024-03-02T00:14:41;231.10;2252.80
16491;DHT22;8356;51.214;3.270;2024-03-02T00:17:16;231.10;2252.80
16491;DHT22;8356;51.214;3.270;2024-03-02T00:19:44;231.10;2252.80
16491;DHT22;8356;51.214;3.270;2024-03-02T00:22:10;231.00;2252.80
16491;DHT22;8356;51.214;3.270;2024-03-02T00:24:36;230.90;2252.80
16491;DHT22;8356;51.214;3.270;2024-03-02T00:27:04;231.00;2252.80
16491;DHT22;8356;51.214;3.270;2024-03-02T00:29:30;231.00;2252.80
16491;DHT22;8356;51.214;3.270;2024-03-02T00:31:57;230.90;2252.80
16491;DHT22;8356;51.214;3.270;2024-03-02T00:34:23;230.90;2252.80
16491;DHT22;8356;51.214;3.270;2024-03-02T00:36:49;230.90;2252.80
16491;DHT22;8356;51.214;3.270;2024-03-02T00:39:15;230.90;2252.80
16491;DHT22;8356;51.214;3.270;2024-03-02T00:41:42;230.70;2252.80
16491;DHT22;8356;51.214;3.270;2024-03-02T00:44:10;230.90;2252.80
16491;DHT22;8356;51.214;3.270;2024-03-02T00:46:38;230.90;2252.80
16491;DHT22;8356;51.214;3.270;2024-03-02T00:49:27;230.80;2252.80
16491;DHT22;8356;51.214;3.270;2024-03-02T00:51:54;230.80;2252.80
16491;DHT22;8356;51.214;3.270;2024-03-02T00:54:22;230.90;2252.80
16491;DHT22;8356;51.214;3.270;2024-03-02T00:56:50;230.80;2252.80
16491;DHT22;8356;51.214;3.270;2024-03-02T00:59:16;230.80;2252.80
16491;DHT22;8356;51.214;3.270;2024-03-02T01:01:41;230.70;2252.80
16491;DHT22;8356;51.214;3.270;2024-03-02T01:04:10;230.80;2252.80
16491;DHT22;8356;51.214;3.270;2024-03-02T01:06:36;230.50;2252.80
16491;DHT22;8356;51.214;3.270;2024-03-02T01:09:02;230.70;2252.80
16491;DHT22;8356;51.214;3.270;2024-03-02T01:11:28;230.60;2252.80
16491;DHT22;8356;51.214;3.270;2024-03-02T01:13:54;230.80;2252.80
16491;DHT22;8356;51.214;3.270;2024-03-02T01:16:19;230.80;2252.80
16491;DHT22;8356;51.214;3.270;2024-03-02T01:18:45;230.80;2252.80
16491;DHT22;8356;51.214;3.270;2024-03-02T01:21:11;230.80;2252.80
16491;DHT22;8356;51.214;3.270;2024-03-02T01:23:37;230.70;2252.80
16491;DHT22;8356;51.214;3.270;2024-03-02T01:26:03;230.70;2252.80
16491;DHT22;8356;51.214;3.270;2024-03-02T01:28:29;230.60;2252.80
16491;DHT22;8356;51.214;3.270;2024-03-02T01:30:54;230.70;2252.80
16491;DHT22;8356;51.214;3.270;2024-03-02T01:33:20;230.60;2252.80
16491;DHT22;8356;51.214;3.270;2024-03-02T01:35:46;230.60;2252.80
16491;DHT22;8356;51.214;3.270;2024-03-02T01:38:13;230.50;2252.80
16491;DHT22;8356;51.214;3.270;2024-03-02T01:40:39;230.50;2252.80
16491;DHT22;8356;51.214;3.270;2024-03-02T01:43:05;230.50;2252.80
16491;DHT22;8356;51.214;3.270;2024-03-02T01:45:31;230.50;2252.80
16491;DHT22;8356;51.214;3.270;2024-03-02T01:47:57;230.60;2252.80
16491;DHT22;8356;51.214;3.270;2024-03-02T01:50:28;230.60;2252.80
16491;DHT22;8356;51.214;3.270;2024-03-02T01:52:55;230.50;2252.80
16491;DHT22;8356;51.214;3.270;2024-03-02T01:55:21;230.60;2252.80
16491;DHT22;8356;51.214;3.270;2024-03-02T01:57:48;230.50;2252.80
16491;DHT22;8356;51.214;3.270;2024-03-02T02:00:14;230.50;2252.80
16491;DHT22;8356;51.214;3.270;2024-03-02T02:02:40;230.60;2252.80
16491;DHT22;8356;51.214;3.270;2024-03-02T02:05:06;230.50;2252.80
16491;DHT22;8356;51.214;3.270;2024-03-02T02:07:32;230.60;2252.80
16491;DHT22;8356;51.214;3.270;2024-03-02T02:09:58;230.40;2252.80
16491;DHT22;8356;51.214;3.270;2024-03-02T02:12:24;205.70;2252.80
16491;DHT22;8356;51.214;3.270;2024-03-02T02:14:50;205.10;2252.80
16491;DHT22;8356;51.214;3.270;2024-03-02T02:17:16;205.70;2252.80
16491;DHT22;8356;51.214;3.270;2024-03-02T02:19:42;205.70;2252.80
16491;DHT22;8356;51.214;3.270;2024-03-02T02:22:08;204.90;2252.80
16491;DHT22;8356;51.214;3.270;2024-03-02T02:24:34;230.40;2252.80
16491;DHT22;8356;51.214;3.270;2024-03-02T02:27:00;230.50;2252.80
16491;DHT22;8356;51.214;3.270;2024-03-02T02:29:25;230.40;2252.80
16491;DHT22;8356;51.214;3.270;2024-03-02T02:31:51;230.50;2252.80
16491;DHT22;8356;51.214;3.270;2024-03-02T02:34:17;230.50;2252.80
16491;DHT22;8356;51.214;3.270;2024-03-02T02:36:42;230.50;2252.80
16491;DHT22;8356;51.214;3.270;2024-03-02T02:39:11;230.40;2252.80
16491;DHT22;8356;51.214;3.270;2024-03-02T02:41:38;230.40;2252.80
16491;DHT22;8356;51.214;3.270;2024-03-02T02:44:04;230.40;2252.80
16491;DHT22;8356;51.214;3.270;2024-03-02T02:46:30;230.50;2252.80
16491;DHT22;8356;51.214;3.270;2024-03-02T02:48:56;230.50;2252.80
16491;DHT22;8356;51.214;3.270;2024-03-02T02:51:22;230.50;2252.80
16491;DHT22;8356;51.214;3.270;2024-03-02T02:53:47;230.40;2252.80
16491;DHT22;8356;51.214;3.270;2024-03-02T02:56:13;230.40;2252.80
16491;DHT22;8356;51.214;3.270;2024-03-02T02:58:40;230.40;2252.80
16491;DHT22;8356;51.214;3.270;2024-03-02T03:01:06;205.70;2252.80
16491;DHT22;8356;51.214;3.270;2024-03-02T03:03:33;205.70;2252.80
16491;DHT22;8356;51.214;3.270;2024-03-02T03:05:58;205.70;2252.80
16491;DHT22;8356;51.214;3.270;2024-03-02T03:08:24;205.70;2252.80
16491;DHT22;8356;51.214;3.270;2024-03-02T03:10:50;205.70;2252.80
16491;DHT22;8356;51.214;3.270;2024-03-02T03:13:15;205.70;2252.80
16491;DHT22;8356;51.214;3.270;2024-03-02T03:15:41;205.70;2252.80
16491;DHT22;8356;51.214;3.270;2024-03-02T03:18:07;205.70;2252.80
16491;DHT22;8356;51.214;3.270;2024-03-02T03:20:33;205.70;2252.80
16491;DHT22;8356;51.214;3.270;2024-03-02T03:22:59;205.50;2252.80
16491;DHT22;8356;51.214;3.270;2024-03-02T03:25:25;205.60;2252.80
16491;DHT22;8356;51.214;3.270;2024-03-02T03:27:50;205.50;2252.80
16491;DHT22;8356;51.214;3.270;2024-03-02T03:30:18;205.50;2252.80
16491;DHT22;8356;51.214;3.270;2024-03-02T03:32:44;205.50;2252.80
16491;DHT22;8356;51.214;3.270;2024-03-02T03:35:09;205.60;2252.80
16491;DHT22;8356;51.214;3.270;2024-03-02T03:37:35;230.40;2252.80
16491;DHT22;8356;51.214;3.270;2024-03-02T03:40:02;205.70;2252.80
16491;DHT22;8356;51.214;3.270;2024-03-02T03:42:28;205.50;2252.80
16491;DHT22;8356;51.214;3.270;2024-03-02T03:44:54;205.50;2252.80
16491;DHT22;8356;51.214;3.270;2024-03-02T03:47:19;205.40;2252.80
16491;DHT22;8356;51.214;3.270;2024-03-02T03:49:46;205.50;2252.80
16491;DHT22;8356;51.214;3.270;2024-03-02T03:52:11;205.50;2252.80
16491;DHT22;8356;51.214;3.270;2024-03-02T03:54:37;205.40;2252.80
16491;DHT22;8356;51.214;3.270;2024-03-02T03:57:04;205.40;2252.80
16491;DHT22;8356;51.214;3.270;2024-03-02T03:59:30;205.40;2252.80
16491;DHT22;8356;51.214;3.270;2024-03-02T04:01:56;205.40;2252.80
16491;DHT22;8356;51.214;3.270;2024-03-02T04:04:21;205.40;2252.80
16491;DHT22;8356;51.214;3.270;2024-03-02T04:06:47;205.40;2252.80
16491;DHT22;8356;51.214;3.270;2024-03-02T04:09:13;205.40;2252.80
16491;DHT22;8356;51.214;3.270;2024-03-02T04:11:39;205.40;2252.80
16491;DHT22;8356;51.214;3.270;2024-03-02T04:14:04;205.50;2252.80
16491;DHT22;8356;51.214;3.270;2024-03-02T04:16:31;205.40;2252.80
16491;DHT22;8356;51.214;3.270;2024-03-02T04:18:57;205.30;2252.80
16491;DHT22;8356;51.214;3.270;2024-03-02T04:21:22;205.30;2252.80
16491;DHT22;8356;51.214;3.270;2024-03-02T04:23:48;205.30;2252.80
16491;DHT22;8356;51.214;3.270;2024-03-02T04:26:14;205.30;2252.80
16491;DHT22;8356;51.214;3.270;2024-03-02T04:28:40;205.30;2252.80
16491;DHT22;8356;51.214;3.270;2024-03-02T04:31:06;205.40;2252.80
16491;DHT22;8356;51.214;3.270;2024-03-02T04:33:31;205.30;2252.80
16491;DHT22;8356;51.214;3.270;2024-03-02T04:35:57;205.40;2252.80
16491;DHT22;8356;51.214;3.270;2024-03-02T04:38:23;205.40;2252.80
16491;DHT22;8356;51.214;3.270;2024-03-02T04:40:49;205.30;2252.80
16491;DHT22;8356;51.214;3.270;2024-03-02T04:43:14;205.50;2252.80
16491;DHT22;8356;51.214;3.270;2024-03-02T04:45:41;205.40;2252.80
16491;DHT22;8356;51.214;3.270;2024-03-02T04:48:08;205.40;2252.80
16491;DHT22;8356;51.214;3.270;2024-03-02T04:50:33;205.40;2252.80
16491;DHT22;8356;51.214;3.270;2024-03-02T04:52:59;205.30;2252.80
16491;DHT22;8356;51.214;3.270;2024-03-02T04:55:25;205.30;2252.80
16491;DHT22;8356;51.214;3.270;2024-03-02T04:58:10;205.30;2252.80
16491;DHT22;8356;51.214;3.270;2024-03-02T05:00:36;205.30;2252.80
16491;DHT22;8356;51.214;3.270;2024-03-02T05:03:02;205.30;2252.80
16491;DHT22;8356;51.214;3.270;2024-03-02T05:05:28;205.20;2252.80
16491;DHT22;8356;51.214;3.270;2024-03-02T05:07:53;205.30;2252.80
16491;DHT22;8356;51.214;3.270;2024-03-02T05:10:20;205.20;2252.80
16491;DHT22;8356;51.214;3.270;2024-03-02T05:12:46;205.10;2252.80
16491;DHT22;8356;51.214;3.270;2024-03-02T05:15:14;205.10;2252.80
16491;DHT22;8356;51.214;3.270;2024-03-02T05:17:40;205.10;2252.80
16491;DHT22;8356;51.214;3.270;2024-03-02T05:20:09;205.10;2252.80
16491;DHT22;8356;51.214;3.270;2024-03-02T05:22:35;205.20;2252.80
16491;DHT22;8356;51.214;3.270;2024-03-02T05:25:01;205.10;2252.80
16491;DHT22;8356;51.214;3.270;2024-03-02T05:27:27;205.10;2252.80
16491;DHT22;8356;51.214;3.270;2024-03-02T05:29:53;205.20;2252.80
16491;DHT22;8356;51.214;3.270;2024-03-02T05:32:19;205.10;2252.80
16491;DHT22;8356;51.214;3.270;2024-03-02T05:34:44;205.10;2252.80
16491;DHT22;8356;51.214;3.270;2024-03-02T05:37:10;205.30;2252.80
16491;DHT22;8356;51.214;3.270;2024-03-02T05:39:36;230.50;2252.80
16491;DHT22;8356;51.214;3.270;2024-03-02T05:42:02;205.30;2252.80
16491;DHT22;8356;51.214;3.270;2024-03-02T05:44:28;205.20;2252.80
16491;DHT22;8356;51.214;3.270;2024-03-02T05:46:55;205.10;2252.80
16491;DHT22;8356;51.214;3.270;2024-03-02T05:49:21;205.10;2252.80
16491;DHT22;8356;51.214;3.270;2024-03-02T05:51:46;205.10;2252.80
16491;DHT22;8356;51.214;3.270;2024-03-02T05:54:12;205.10;2252.80
16491;DHT22;8356;51.214;3.270;2024-03-02T05:56:38;205.10;2252.80
16491;DHT22;8356;51.214;3.270;2024-03-02T05:59:03;205.00;2252.80
16491;DHT22;8356;51.214;3.270;2024-03-02T06:01:39;205.00;2252.80
16491;DHT22;8356;51.214;3.270;2024-03-02T06:04:05;205.10;2252.80
16491;DHT22;8356;51.214;3.270;2024-03-02T06:06:31;205.10;2252.80
16491;DHT22;8356;51.214;3.270;2024-03-02T06:08:59;205.10;2252.80
16491;DHT22;8356;51.214;3.270;2024-03-02T06:11:25;205.20;2252.80
16491;DHT22;8356;51.214;3.270;2024-03-02T06:13:51;205.20;2252.80
16491;DHT22;8356;51.214;3.270;2024-03-02T06:16:16;205.00;2252.80
16491;DHT22;8356;51.214;3.270;2024-03-02T06:18:42;204.90;2252.80
16491;DHT22;8356;51.214;3.270;2024-03-02T06:21:07;204.80;2252.80
16491;DHT22;8356;51.214;3.270;2024-03-02T06:23:33;204.90;2252.80
16491;DHT22;8356;51.214;3.270;2024-03-02T06:26:00;205.00;2252.80
16491;DHT22;8356;51.214;3.270;2024-03-02T06:28:26;205.10;2252.80
16491;DHT22;8356;51.214;3.270;2024-03-02T06:30:52;205.10;2252.80
16491;DHT22;8356;51.214;3.270;2024-03-02T06:33:17;205.00;2252.80
16491;DHT22;8356;51.214;3.270;2024-03-02T06:35:43;205.10;2252.80
16491;DHT22;8356;51.214;3.270;2024-03-02T06:38:08;205.10;2252.80
16491;DHT22;8356;51.214;3.270;2024-03-02T06:40:34;205.00;2252.80
16491;DHT22;8356;51.214;3.270;2024-03-02T06:42:59;205.10;2252.80
16491;DHT22;8356;51.214;3.270;2024-03-02T06:45:25;205.10;2252.80
16491;DHT22;8356;51.214;3.270;2024-03-02T06:47:51;205.10;2252.80
16491;DHT22;8356;51.214;3.270;2024-03-02T06:50:16;205.00;2252.80
16491;DHT22;8356;51.214;3.270;2024-03-02T06:52:42;205.10;2252.80
16491;DHT22;8356;51.214;3.270;2024-03-02T06:55:09;205.00;2252.80
16491;DHT22;8356;51.214;3.270;2024-03-02T06:57:34;205.00;2252.80
16491;DHT22;8356;51.214;3.270;2024-03-02T07:00:00;205.10;2252.80
16491;DHT22;8356;51.214;3.270;2024-03-02T07:02:25;205.00;2252.80
16491;DHT22;8356;51.214;3.270;2024-03-02T07:04:53;205.00;2252.80
16491;DHT22;8356;51.214;3.270;2024-03-02T07:07:18;230.40;2252.80
16491;DHT22;8356;51.214;3.270;2024-03-02T07:09:44;205.10;2252.80
16491;DHT22;8356;51.214;3.270;2024-03-02T07:12:09;205.10;2252.80
16491;DHT22;8356;51.214;3.270;2024-03-02T07:14:35;205.10;2252.80
16491;DHT22;8356;51.214;3.270;2024-03-02T07:17:30;205.20;2252.80
16491;DHT22;8356;51.214;3.270;2024-03-02T07:19:56;205.20;2252.80
16491;DHT22;8356;51.214;3.270;2024-03-02T07:22:22;205.20;2252.80
16491;DHT22;8356;51.214;3.270;2024-03-02T07:24:48;205.20;2252.80
16491;DHT22;8356;51.214;3.270;2024-03-02T07:27:15;205.40;2252.80
16491;DHT22;8356;51.214;3.270;2024-03-02T07:29:42;205.00;2252.80
16491;DHT22;8356;51.214;3.270;2024-03-02T07:32:08;205.50;2252.80
16491;DHT22;8356;51.214;3.270;2024-03-02T07:34:34;231.10;2252.80
16491;DHT22;8356;51.214;3.270;2024-03-02T07:37:00;205.70;2252.80
16491;DHT22;8356;51.214;3.270;2024-03-02T07:39:26;205.70;2252.80
16491;DHT22;8356;51.214;3.270;2024-03-02T07:41:52;205.70;2252.80
16491;DHT22;8356;51.214;3.270;2024-03-02T07:44:18;205.70;2252.80
16491;DHT22;8356;51.214;3.270;2024-03-02T07:46:45;230.40;2252.80
16491;DHT22;8356;51.214;3.270;2024-03-02T07:49:17;230.40;2252.80
16491;DHT22;8356;51.214;3.270;2024-03-02T07:51:43;230.40;2252.80
16491;DHT22;8356;51.214;3.270;2024-03-02T07:54:08;230.50;2252.80
16491;DHT22;8356;51.214;3.270;2024-03-02T07:56:35;230.60;2252.80
16491;DHT22;8356;51.214;3.270;2024-03-02T07:59:04;230.80;2252.80
16491;DHT22;8356;51.214;3.270;2024-03-02T08:01:30;230.90;2252.80
16491;DHT22;8356;51.214;3.270;2024-03-02T08:04:03;230.90;2252.80
16491;DHT22;8356;51.214;3.270;2024-03-02T08:06:29;230.90;2252.80
16491;DHT22;8356;51.214;3.270;2024-03-02T08:08:59;231.00;2252.80
16491;DHT22;8356;51.214;3.270;2024-03-02T08:11:25;231.00;2252.80
16491;DHT22;8356;51.214;3.270;2024-03-02T08:13:50;231.10;2252.80
16491;DHT22;8356;51.214;3.270;2024-03-02T08:16:18;231.20;2252.80
16491;DHT22;8356;51.214;3.270;2024-03-02T08:18:50;231.10;2252.80
16491;DHT22;8356;51.214;3.270;2024-03-02T08:21:16;231.20;2252.80
16491;DHT22;8356;51.214;3.270;2024-03-02T08:23:42;231.30;2252.80
16491;DHT22;8356;51.214;3.270;2024-03-02T08:26:09;256.80;2252.80
16491;DHT22;8356;51.214;3.270;2024-03-02T08:28:35;256.10;2252.80
16491;DHT22;8356;51.214;3.270;2024-03-02T08:31:03;256.20;2252.80
16491;DHT22;8356;51.214;3.270;2024-03-02T08:33:28;307.80;2304.00
16491;DHT22;8356;51.214;3.270;2024-03-02T08:35:54;256.30;2252.80
16491;DHT22;8356;51.214;3.270;2024-03-02T08:38:20;256.50;2252.80
16491;DHT22;8356;51.214;3.270;2024-03-02T08:40:46;256.50;2252.80
16491;DHT22;8356;51.214;3.270;2024-03-02T08:43:12;256.50;2252.80
16491;DHT22;8356;51.214;3.270;2024-03-02T08:45:38;256.50;2252.80
16491;DHT22;8356;51.214;3.270;2024-03-02T08:48:07;256.60;2252.80
16491;DHT22;8356;51.214;3.270;2024-03-02T08:50:34;256.70;2252.80
16491;DHT22;8356;51.214;3.270;2024-03-02T08:52:59;256.80;2252.80
16491;DHT22;8356;51.214;3.270;2024-03-02T08:55:25;256.90;2252.80
16491;DHT22;8356;51.214;3.270;2024-03-02T08:57:50;281.70;2278.40
16491;DHT22;8356;51.214;3.270;2024-03-02T09:00:17;281.70;2278.40
16491;DHT22;8356;51.214;3.270;2024-03-02T09:02:44;281.80;2278.40
16491;DHT22;8356;51.214;3.270;2024-03-02T09:05:10;281.80;2278.40
16491;DHT22;8356;51.214;3.270;2024-03-02T09:07:36;281.80;2278.40
16491;DHT22;8356;51.214;3.270;2024-03-02T09:10:01;281.60;2278.40
16491;DHT22;8356;51.214;3.270;2024-03-02T09:12:27;281.60;2278.40
16491;DHT22;8356;51.214;3.270;2024-03-02T09:14:52;281.70;2278.40
16491;DHT22;8356;51.214;3.270;2024-03-02T09:17:18;281.60;2278.40
16491;DHT22;8356;51.214;3.270;2024-03-02T09:19:44;281.70;2278.40
16491;DHT22;8356;51.214;3.270;2024-03-02T09:22:09;281.70;2278.40
16491;DHT22;8356;51.214;3.270;2024-03-02T09:24:35;281.60;2278.40
16491;DHT22;8356;51.214;3.270;2024-03-02T09:27:01;281.80;2278.40
16491;DHT22;8356;51.214;3.270;2024-03-02T09:29:26;281.80;2278.40
16491;DHT22;8356;51.214;3.270;2024-03-02T09:31:52;281.80;2278.40
16491;DHT22;8356;51.214;3.270;2024-03-02T09:34:18;281.80;2278.40
16491;DHT22;8356;51.214;3.270;2024-03-02T09:36:43;281.60;2278.40
16491;DHT22;8356;51.214;3.270;2024-03-02T09:39:09;281.60;2278.40
16491;DHT22;8356;51.214;3.270;2024-03-02T09:41:38;281.60;2278.40
16491;DHT22;8356;51.214;3.270;2024-03-02T09:44:07;281.60;2278.40
16491;DHT22;8356;51.214;3.270;2024-03-02T09:46:33;281.70;2278.40
16491;DHT22;8356;51.214;3.270;2024-03-02T09:49:01;282.00;2278.40
16491;DHT22;8356;51.214;3.270;2024-03-02T09:51:26;282.10;2278.40
16491;DHT22;8356;51.214;3.270;2024-03-02T09:53:52;282.20;2278.40
16491;DHT22;8356;51.214;3.270;2024-03-02T09:56:20;282.30;2278.40
16491;DHT22;8356;51.214;3.270;2024-03-02T09:58:47;282.20;2278.40
16491;DHT22;8356;51.214;3.270;2024-03-02T10:01:13;282.20;2278.40
16491;DHT22;8356;51.214;3.270;2024-03-02T10:03:39;282.10;2278.40
16491;DHT22;8356;51.214;3.270;2024-03-02T10:06:24;282.10;2278.40
16491;DHT22;8356;51.214;3.270;2024-03-02T10:08:50;282.00;2278.40
16491;DHT22;8356;51.214;3.270;2024-03-02T10:11:45;281.90;2278.40
16491;DHT22;8356;51.214;3.270;2024-03-02T10:14:12;282.00;2278.40
16491;DHT22;8356;51.214;3.270;2024-03-02T10:16:40;282.10;2278.40
16491;DHT22;8356;51.214;3.270;2024-03-02T10:19:22;282.30;2278.40
16491;DHT22;8356;51.214;3.270;2024-03-02T10:21:55;307.20;2304.00
16491;DHT22;8356;51.214;3.270;2024-03-02T10:24:22;307.20;2304.00
16491;DHT22;8356;51.214;3.270;2024-03-02T10:26:49;307.20;2304.00
16491;DHT22;8356;51.214;3.270;2024-03-02T10:29:16;307.30;2304.00
16491;DHT22;8356;51.214;3.270;2024-03-02T10:31:44;307.30;2304.00
16491;DHT22;8356;51.214;3.270;2024-03-02T10:34:11;307.20;2304.00
16491;DHT22;8356;51.214;3.270;2024-03-02T10:36:41;307.30;2304.00
16491;DHT22;8356;51.214;3.270;2024-03-02T10:39:07;307.30;2304.00
16491;DHT22;8356;51.214;3.270;2024-03-02T10:41:35;307.40;2304.00
16491;DHT22;8356;51.214;3.270;2024-03-02T10:44:04;307.40;2304.00
16491;DHT22;8356;51.214;3.270;2024-03-02T10:46:31;307.40;2304.00
16491;DHT22;8356;51.214;3.270;2024-03-02T10:48:59;307.50;2304.00
16491;DHT22;8356;51.214;3.270;2024-03-02T10:51:26;307.60;2304.00
16491;DHT22;8356;51.214;3.270;2024-03-02T10:53:53;307.60;2304.00
16491;DHT22;8356;51.214;3.270;2024-03-02T10:56:59;307.70;2304.00
16491;DHT22;8356;51.214;3.270;2024-03-02T11:01:59;307.90;2304.00
16491;DHT22;8356;51.214;3.270;2024-03-02T11:04:30;307.90;2304.00
16491;DHT22;8356;51.214;3.270;2024-03-02T11:09:27;307.70;2304.00
16491;DHT22;8356;51.214;3.270;2024-03-02T11:14:43;307.60;2304.00
16491;DHT22;8356;51.214;3.270;2024-03-02T11:17:09;307.60;2304.00
16491;DHT22;8356;51.214;3.270;2024-03-02T11:19:38;307.70;2304.00
16491;DHT22;8356;51.214;3.270;2024-03-02T11:22:04;307.90;2304.00
16491;DHT22;8356;51.214;3.270;2024-03-02T11:24:31;308.00;2304.00
16491;DHT22;8356;51.214;3.270;2024-03-02T11:27:04;332.80;2329.60
16491;DHT22;8356;51.214;3.270;2024-03-02T11:32:16;333.00;2329.60
16491;DHT22;8356;51.214;3.270;2024-03-02T11:34:44;333.10;2329.60
16491;DHT22;8356;51.214;3.270;2024-03-02T11:37:12;333.20;2329.60
16491;DHT22;8356;51.214;3.270;2024-03-02T11:39:41;333.20;2329.60
16491;DHT22;8356;51.214;3.270;2024-03-02T11:42:08;333.20;2329.60
16491;DHT22;8356;51.214;3.270;2024-03-02T11:44:36;333.00;2329.60
16491;DHT22;8356;51.214;3.270;2024-03-02T11:47:05;333.10;2329.60
16491;DHT22;8356;51.214;3.270;2024-03-02T11:49:45;333.00;2329.60
16491;DHT22;8356;51.214;3.270;2024-03-02T11:52:15;332.80;2329.60
16491;DHT22;8356;51.214;3.270;2024-03-02T11:54:44;308.10;2304.00
16491;DHT22;8356;51.214;3.270;2024-03-02T11:57:15;332.80;2329.60
16491;DHT22;8356;51.214;3.270;2024-03-02T11:59:42;308.10;2304.00
16491;DHT22;8356;51.214;3.270;2024-03-02T12:02:15;308.10;2304.00
16491;DHT22;8356;51.214;3.270;2024-03-02T12:04:42;308.00;2304.00
16491;DHT22;8356;51.214;3.270;2024-03-02T12:07:09;307.90;2304.00
16491;DHT22;8356;51.214;3.270;2024-03-02T12:09:35;308.00;2304.00
16491;DHT22;8356;51.214;3.270;2024-03-02T12:12:08;308.00;2304.00
16491;DHT22;8356;51.214;3.270;2024-03-02T12:14:35;308.10;2304.00
16491;DHT22;8356;51.214;3.270;2024-03-02T12:17:01;308.00;2304.00
16491;DHT22;8356;51.214;3.270;2024-03-02T12:19:28;308.00;2304.00
16491;DHT22;8356;51.214;3.270;2024-03-02T12:21:56;307.90;2304.00
16491;DHT22;8356;51.214;3.270;2024-03-02T12:24:22;307.90;2304.00
16491;DHT22;8356;51.214;3.270;2024-03-02T12:26:50;307.90;2304.00
16491;DHT22;8356;51.214;3.270;2024-03-02T12:29:16;333.10;2329.60
16491;DHT22;8356;51.214;3.270;2024-03-02T12:31:42;307.80;2304.00
16491;DHT22;8356;51.214;3.270;2024-03-02T12:34:15;307.70;2304.00
16491;DHT22;8356;51.214;3.270;2024-03-02T12:36:41;307.60;2304.00
16491;DHT22;8356;51.214;3.270;2024-03-02T12:39:10;307.60;2304.00
16491;DHT22;8356;51.214;3.270;2024-03-02T12:41:36;307.50;2304.00
16491;DHT22;8356;51.214;3.270;2024-03-02T12:44:05;307.50;2304.00
16491;DHT22;8356;51.214;3.270;2024-03-02T12:46:32;307.40;2304.00
16491;DHT22;8356;51.214;3.270;2024-03-02T12:48:58;307.40;2304.00
16491;DHT22;8356;51.214;3.270;2024-03-02T12:51:24;307.40;2304.00
16491;DHT22;8356;51.214;3.270;2024-03-02T12:53:54;307.40;2304.00
16491;DHT22;8356;51.214;3.270;2024-03-02T12:56:21;307.30;2304.00
16491;DHT22;8356;51.214;3.270;2024-03-02T12:58:46;307.30;2304.00
16491;DHT22;8356;51.214;3.270;2024-03-02T13:01:15;307.20;2304.00
16491;DHT22;8356;51.214;3.270;2024-03-02T13:03:43;307.20;2304.00
16491;DHT22;8356;51.214;3.270;2024-03-02T13:06:09;307.20;2304.00
16491;DHT22;8356;51.214;3.270;2024-03-02T13:08:35;282.50;2278.40
16491;DHT22;8356;51.214;3.270;2024-03-02T13:11:01;282.50;2278.40
16491;DHT22;8356;51.214;3.270;2024-03-02T13:13:30;282.50;2278.40
16491;DHT22;8356;51.214;3.270;2024-03-02T13:15:56;282.50;2278.40
16491;DHT22;8356;51.214;3.270;2024-03-02T13:18:22;307.20;2304.00
16491;DHT22;8356;51.214;3.270;2024-03-02T13:20:48;281.80;2278.40
16491;DHT22;8356;51.214;3.270;2024-03-02T13:23:14;282.50;2278.40
16491;DHT22;8356;51.214;3.270;2024-03-02T13:25:39;307.30;2304.00
16491;DHT22;8356;51.214;3.270;2024-03-02T13:28:06;307.40;2304.00
16491;DHT22;8356;51.214;3.270;2024-03-02T13:30:32;307.50;2304.00
16491;DHT22;8356;51.214;3.270;2024-03-02T13:32:58;307.40;2304.00
16491;DHT22;8356;51.214;3.270;2024-03-02T13:35:24;307.50;2304.00
16491;DHT22;8356;51.214;3.270;2024-03-02T13:37:49;307.40;2304.00
16491;DHT22;8356;51.214;3.270;2024-03-02T13:40:16;307.50;2304.00
16491;DHT22;8356;51.214;3.270;2024-03-02T13:42:45;307.50;2304.00
16491;DHT22;8356;51.214;3.270;2024-03-02T13:45:12;307.70;2304.00
16491;DHT22;8356;51.214;3.270;2024-03-02T13:47:38;307.50;2304.00
16491;DHT22;8356;51.214;3.270;2024-03-02T13:50:04;307.50;2304.00
16491;DHT22;8356;51.214;3.270;2024-03-02T13:52:30;307.70;2304.00
16491;DHT22;8356;51.214;3.270;2024-03-02T13:54:56;307.90;2304.00
16491;DHT22;8356;51.214;3.270;2024-03-02T13:57:22;307.90;2304.00
16491;DHT22;8356;51.214;3.270;2024-03-02T13:59:48;308.00;2304.00
16491;DHT22;8356;51.214;3.270;2024-03-02T14:02:15;307.90;2304.00
16491;DHT22;8356;51.214;3.270;2024-03-02T14:04:40;307.90;2304.00
16491;DHT22;8356;51.214;3.270;2024-03-02T14:07:07;307.90;2304.00
16491;DHT22;8356;51.214;3.270;2024-03-02T14:09:32;307.90;2304.00
16491;DHT22;8356;51.214;3.270;2024-03-02T14:11:58;307.90;2304.00
16491;DHT22;8356;51.214;3.270;2024-03-02T14:14:26;307.90;2304.00
16491;DHT22;8356;51.214;3.270;2024-03-02T14:16:53;307.90;2304.00
16491;DHT22;8356;51.214;3.270;2024-03-02T14:19:19;307.80;2304.00
16491;DHT22;8356;51.214;3.270;2024-03-02T14:21:46;307.60;2304.00
16491;DHT22;8356;51.214;3.270;2024-03-02T14:24:13;307.60;2304.00
16491;DHT22;8356;51.214;3.270;2024-03-02T14:26:38;307.50;2304.00
16491;DHT22;8356;51.214;3.270;2024-03-02T14:29:04;307.50;2304.00
16491;DHT22;8356;51.214;3.270;2024-03-02T14:31:30;307.50;2304.00
16491;DHT22;8356;51.214;3.270;2024-03-02T14:33:59;307.50;2304.00
16491;DHT22;8356;51.214;3.270;2024-03-02T14:36:34;307.40;2304.00
16491;DHT22;8356;51.214;3.270;2024-03-02T14:39:00;307.40;2304.00
16491;DHT22;8356;51.214;3.270;2024-03-02T14:41:25;307.40;2304.00
16491;DHT22;8356;51.214;3.270;2024-03-02T14:43:51;307.50;2304.00
16491;DHT22;8356;51.214;3.270;2024-03-02T14:46:17;307.40;2304.00
16491;DHT22;8356;51.214;3.270;2024-03-02T14:48:44;307.40;2304.00
16491;DHT22;8356;51.214;3.270;2024-03-02T14:51:10;307.50;2304.00
16491;DHT22;8356;51.214;3.270;2024-03-02T14:53:36;307.40;2304.00
16491;DHT22;8356;51.214;3.270;2024-03-02T14:56:04;307.40;2304.00
16491;DHT22;8356;51.214;3.270;2024-03-02T14:58:29;307.30;2304.00
16491;DHT22;8356;51.214;3.270;2024-03-02T15:00:55;307.30;2304.00
16491;DHT22;8356;51.214;3.270;2024-03-02T15:03:21;307.50;2304.00
16491;DHT22;8356;51.214;3.270;2024-03-02T15:05:46;307.40;2304.00
16491;DHT22;8356;51.214;3.270;2024-03-02T15:08:14;307.30;2304.00
16491;DHT22;8356;51.214;3.270;2024-03-02T15:10:39;307.30;2304.00
16491;DHT22;8356;51.214;3.270;2024-03-02T15:13:05;307.20;2304.00